Time;durP1;ratioP1;P1;durP2;ratioP2;P2;SDS_P1;SDS_P2;PMS_P1;PMS_P2;Temp;Humidity;BMP_temperature;BMP_pressure;BME280_temperature;BME280_humidity;BME280_pressure;Samples;Min_cycle;Max_cycle;Signal;HPM_P1;HPM_P2
2021/06/02 00:00:16;;;;;;;3.22;2.72;;;19.70;67.60;;;;;;5113388;28;20043;-43
2021/06/02 00:02:46;;;;;;;2.47;2.28;;;19.70;67.60;;;;;;5097926;28;20036;-44
2021/06/02 00:05:12;;;;;;;3.15;2.55;;;19.80;67.60;;;;;;5098073;28;20039;-48
2021/06/02 00:07:40;;;;;;;2.70;2.40;;;19.70;67.50;;;;;;5130382;27;20053;-46
2021/06/02 00:10:08;;;;;;;2.92;2.63;;;19.70;67.50;;;;;;5135464;27;20039;-44
2021/06/02 00:12:34;;;;;;;2.50;2.00;;;19.70;67.60;;;;;;5135115;27;20049;-47
2021/06/02 00:15:01;;;;;;;2.65;2.45;;;19.70;67.60;;;;;;5135316;27;20047;-45
2021/06/02 00:17:26;;;;;;;2.35;2.15;;;19.70;67.60;;;;;;5134747;27;20086;-45
2021/06/02 00:19:53;;;;;;;2.80;2.13;;;19.70;67.60;;;;;;5134140;27;20051;-45
2021/06/02 00:22:18;;;;;;;2.58;1.98;;;19.70;67.60;;;;;;5135282;27;20133;-43
2021/06/02 00:24:44;;;;;;;2.53;2.33;;;19.70;67.60;;;;;;5134810;27;20496;-48
2021/06/02 00:27:12;;;;;;;3.08;2.10;;;19.70;67.60;;;;;;5135026;27;20082;-46
2021/06/02 00:29:40;;;;;;;2.95;2.53;;;19.70;67.60;;;;;;5134772;27;20285;-47
2021/06/02 00:32:07;;;;;;;2.60;2.30;;;19.70;67.60;;;;;;5134431;27;20043;-45
2021/06/02 00:34:34;;;;;;;3.10;2.30;;;19.70;67.50;;;;;;5134641;27;20054;-50
2021/06/02 00:37:02;;;;;;;2.40;2.20;;;19.70;67.50;;;;;;5134199;27;20102;-49
2021/06/02 00:39:28;;;;;;;2.58;2.38;;;19.70;67.60;;;;;;5134346;27;20077;-49
2021/06/02 00:41:55;;;;;;;2.78;2.30;;;19.70;67.60;;;;;;5134505;27;20380;-48
2021/06/02 00:44:21;;;;;;;2.47;2.03;;;19.70;67.50;;;;;;5134763;27;20325;-45
2021/06/02 00:46:48;;;;;;;2.28;2.05;;;19.70;67.60;;;;;;5134100;27;20051;-48
2021/06/02 00:49:25;;;;;;;2.53;2.22;;;19.70;67.60;;;;;;5134074;27;20047;-42
2021/06/02 00:52:07;;;;;;;2.97;2.25;;;19.70;67.60;;;;;;5134086;27;20039;-42
2021/06/02 00:54:37;;;;;;;2.60;2.40;;;19.70;67.60;;;;;;5133981;27;20380;-46
2021/06/02 00:57:13;;;;;;;2.10;1.90;;;19.60;67.60;;;;;;5134225;27;20054;-42
2021/06/02 00:59:45;;;;;;;2.70;2.20;;;19.70;67.60;;;;;;5115536;27;20096;-46
2021/06/02 01:02:16;;;;;;;2.15;1.95;;;19.60;67.50;;;;;;5134015;27;20069;-44
2021/06/02 01:04:44;;;;;;;2.88;2.38;;;19.60;67.50;;;;;;5133955;27;20475;-45
2021/06/02 01:07:11;;;;;;;2.50;2.25;;;19.60;67.60;;;;;;5133290;27;20059;-44
2021/06/02 01:09:48;;;;;;;2.70;2.42;;;19.60;67.50;;;;;;5134161;27;20138;-45
2021/06/02 01:12:17;;;;;;;2.88;2.38;;;19.60;67.50;;;;;;5133790;27;20068;-45
2021/06/02 01:14:45;;;;;;;2.10;1.90;;;19.60;67.50;;;;;;5134230;27;20148;-45
2021/06/02 01:17:16;;;;;;;2.40;2.20;;;19.60;67.50;;;;;;5133659;27;20050;-44
2021/06/02 01:19:43;;;;;;;3.13;2.22;;;19.60;67.50;;;;;;5132323;27;20455;-48
2021/06/02 01:22:09;;;;;;;2.50;2.13;;;19.60;67.50;;;;;;5133415;27;20047;-46
2021/06/02 01:24:35;;;;;;;2.10;1.90;;;19.60;67.50;;;;;;5133675;27;20069;-45
2021/06/02 01:27:04;;;;;;;2.28;2.08;;;19.50;67.40;;;;;;5133383;27;20046;-44
2021/06/02 01:29:30;;;;;;;2.60;2.40;;;19.60;67.50;;;;;;5133568;27;20044;-44
2021/06/02 01:32:28;;;;;;;2.40;2.20;;;19.60;67.50;;;;;;5133406;27;20031;-45
2021/06/02 01:35:35;;;;;;;2.25;1.75;;;19.60;67.60;;;;;;5132654;27;20471;-46
2021/06/02 01:38:36;;;;;;;2.97;2.50;;;19.60;67.60;;;;;;5050226;28;20069;-45
2021/06/02 01:41:16;;;;;;;2.50;2.10;;;19.60;67.60;;;;;;5050296;28;20052;-46
2021/06/02 01:44:09;;;;;;;2.33;2.13;;;19.50;67.50;;;;;;5049808;28;20056;-41
2021/06/02 01:46:40;;;;;;;2.42;2.00;;;19.60;67.60;;;;;;5050012;28;20465;-42
2021/06/02 01:49:15;;;;;;;2.65;2.28;;;19.50;67.60;;;;;;5049994;28;20055;-44
2021/06/02 01:52:25;;;;;;;2.53;2.15;;;19.60;67.60;;;;;;5050201;28;20044;-38
2021/06/02 01:55:14;;;;;;;2.00;1.80;;;19.50;67.60;;;;;;5048641;28;20544;-44
2021/06/02 01:58:11;;;;;;;2.45;2.17;;;19.50;67.60;;;;;;5050706;28;20057;-48
2021/06/02 02:00:55;;;;;;;2.13;1.92;;;19.50;67.60;;;;;;5027149;28;20137;-47
2021/06/02 02:03:27;;;;;;;2.83;2.38;;;19.60;67.70;;;;;;5023068;28;20050;-46
2021/06/02 02:06:12;;;;;;;2.13;1.92;;;19.50;67.70;;;;;;5029801;28;20085;-45
2021/06/02 02:08:49;;;;;;;2.42;2.20;;;19.50;67.70;;;;;;5030153;28;20253;-41
2021/06/02 02:11:34;;;;;;;2.58;2.38;;;19.50;67.70;;;;;;5029794;28;20085;-46
2021/06/02 02:14:02;;;;;;;2.60;2.40;;;19.50;67.70;;;;;;5032157;28;20353;-40
2021/06/02 02:16:42;;;;;;;2.97;2.40;;;19.40;67.70;;;;;;5050103;28;20516;-40
2021/06/02 02:19:13;;;;;;;3.08;2.78;;;19.50;67.70;;;;;;5030159;28;20072;-47
2021/06/02 02:21:43;;;;;;;2.45;2.25;;;19.50;68.40;;;;;;5029740;28;20057;-38
2021/06/02 02:24:11;;;;;;;2.30;2.10;;;19.50;67.80;;;;;;5038896;28;20103;-44
2021/06/02 02:26:46;;;;;;;2.20;1.90;;;19.50;67.80;;;;;;5030995;28;20508;-45
2021/06/02 02:29:42;;;;;;;2.22;2.03;;;19.50;67.80;;;;;;5030929;28;20129;-44
2021/06/02 02:32:40;;;;;;;2.55;2.33;;;19.50;67.80;;;;;;5029751;28;20088;-45
2021/06/02 02:35:33;;;;;;;2.33;2.13;;;19.50;67.80;;;;;;5030391;28;20056;-43
2021/06/02 02:38:33;;;;;;;3.35;2.55;;;19.50;67.80;;;;;;5082683;28;20043;-48
2021/06/02 02:41:17;;;;;;;2.72;2.22;;;19.50;67.90;;;;;;5112492;28;20063;-44
2021/06/02 02:44:05;;;;;;;2.78;2.47;;;19.50;67.90;;;;;;5112321;28;20550;-45
2021/06/02 02:46:53;;;;;;;2.55;2.35;;;19.50;67.90;;;;;;5111987;28;20043;-42
2021/06/02 02:49:44;;;;;;;2.47;2.08;;;19.50;67.90;;;;;;5112444;28;20075;-44
2021/06/02 02:52:37;;;;;;;2.30;2.10;;;19.50;68.00;;;;;;5111649;28;20047;-49
2021/06/02 02:55:26;;;;;;;2.60;2.40;;;19.50;68.00;;;;;;5112159;28;20119;-48
2021/06/02 02:58:15;;;;;;;2.40;2.20;;;19.50;68.00;;;;;;5105963;28;20040;-47
2021/06/02 03:01:05;;;;;;;2.90;2.60;;;19.50;68.00;;;;;;5112003;28;20123;-46
2021/06/02 03:03:43;;;;;;;2.92;2.60;;;19.40;68.00;;;;;;5110709;28;20105;-49
2021/06/02 03:06:15;;;;;;;3.65;2.55;;;19.50;68.00;;;;;;5114802;28;20074;-42
2021/06/02 03:08:52;;;;;;;3.20;2.22;;;19.40;68.00;;;;;;5131528;28;20047;-50
2021/06/02 03:11:28;;;;;;;3.20;2.65;;;19.40;68.00;;;;;;5132497;28;20050;-42
2021/06/02 03:14:21;;;;;;;2.40;1.92;;;19.40;68.10;;;;;;5132737;28;20039;-45
2021/06/02 03:17:09;;;;;;;2.78;2.47;;;19.40;68.10;;;;;;5132308;28;20515;-43
2021/06/02 03:19:42;;;;;;;2.70;2.13;;;19.40;68.10;;;;;;5135326;27;20104;-45
2021/06/02 03:22:14;;;;;;;2.30;2.10;;;19.40;68.10;;;;;;5136121;27;20080;-41
2021/06/02 03:24:58;;;;;;;2.10;1.90;;;19.40;68.10;;;;;;5135708;27;20402;-43
2021/06/02 03:27:35;;;;;;;2.53;2.13;;;19.40;68.20;;;;;;5135320;27;20039;-43
2021/06/02 03:30:27;;;;;;;4.10;2.40;;;19.40;68.20;;;;;;5135890;27;20055;-49
2021/06/02 03:33:26;;;;;;;2.90;2.20;;;19.40;68.20;;;;;;5135973;27;20039;-48
2021/06/02 03:36:11;;;;;;;3.13;2.40;;;19.50;68.30;;;;;;5135944;27;20043;-48
2021/06/02 03:39:18;;;;;;;2.65;2.30;;;19.40;68.20;;;;;;5135272;27;20138;-44
2021/06/02 03:42:21;;;;;;;2.80;2.30;;;19.40;68.20;;;;;;5072860;28;20386;-45
2021/06/02 03:45:12;;;;;;;3.25;2.58;;;19.40;68.30;;;;;;5032634;28;20482;-45
2021/06/02 03:47:50;;;;;;;2.35;2.15;;;19.40;68.30;;;;;;5040576;28;20497;-45
2021/06/02 03:50:32;;;;;;;2.85;2.30;;;19.40;68.30;;;;;;5034246;28;20138;-46
2021/06/02 03:53:31;;;;;;;3.63;2.80;;;19.40;68.40;;;;;;5032289;28;20049;-44
2021/06/02 03:56:32;;;;;;;2.53;2.13;;;19.40;68.40;;;;;;5032481;28;20167;-44
2021/06/02 03:59:15;;;;;;;2.65;2.30;;;19.40;68.40;;;;;;4992941;28;20515;-45
2021/06/02 04:01:57;;;;;;;2.72;2.38;;;19.40;68.40;;;;;;4992187;28;20053;-44
2021/06/02 04:04:24;;;;;;;2.53;2.30;;;19.40;68.40;;;;;;4992586;28;20138;-43
2021/06/02 04:07:05;;;;;;;2.67;2.28;;;19.40;68.40;;;;;;4992617;28;20086;-44
2021/06/02 04:09:53;;;;;;;2.25;2.05;;;19.40;68.40;;;;;;4992808;28;20257;-43
2021/06/02 04:12:34;;;;;;;2.92;2.40;;;19.40;68.40;;;;;;4976455;28;20113;-44
2021/06/02 04:15:05;;;;;;;3.28;2.60;;;19.40;68.40;;;;;;4954558;29;20059;-43
2021/06/02 04:17:32;;;;;;;2.40;2.20;;;19.40;68.50;;;;;;4954128;29;20504;-43
2021/06/02 04:20:03;;;;;;;3.03;2.72;;;19.40;68.50;;;;;;4957385;28;20082;-38
2021/06/02 04:22:31;;;;;;;2.97;2.60;;;19.40;68.50;;;;;;5031305;28;20061;-43
2021/06/02 04:24:59;;;;;;;2.97;2.53;;;19.30;68.50;;;;;;5031698;28;20041;-46
2021/06/02 04:27:26;;;;;;;2.75;2.55;;;19.40;68.50;;;;;;5031626;28;20054;-45
2021/06/02 04:29:52;;;;;;;3.15;2.63;;;19.30;68.50;;;;;;5030237;28;20232;-49
2021/06/02 04:32:18;;;;;;;3.08;2.65;;;19.40;68.50;;;;;;5031518;28;20539;-42
2021/06/02 04:34:45;;;;;;;3.00;2.63;;;19.40;68.50;;;;;;5035665;28;20158;-51
2021/06/02 04:37:12;;;;;;;2.47;2.13;;;19.40;68.50;;;;;;5105067;28;20403;-49
2021/06/02 04:39:40;;;;;;;2.58;2.38;;;19.40;68.60;;;;;;5114151;28;20054;-49
2021/06/02 04:42:08;;;;;;;2.50;2.25;;;19.40;68.60;;;;;;5113923;28;20466;-41
2021/06/02 04:44:35;;;;;;;3.50;2.72;;;19.30;68.50;;;;;;5113161;28;20059;-49
2021/06/02 04:47:04;;;;;;;3.17;2.70;;;19.30;68.50;;;;;;5113755;28;20051;-46
2021/06/02 04:49:44;;;;;;;2.95;2.25;;;19.30;68.50;;;;;;5113896;28;20047;-48
2021/06/02 04:53:15;;;;;;;2.30;2.10;;;19.40;68.60;;;;;;5114187;28;20096;-51
2021/06/02 04:55:53;;;;;;;3.22;2.72;;;19.30;68.50;;;;;;5093523;28;20091;-45
2021/06/02 04:59:01;;;;;;;3.58;2.70;;;19.30;68.60;;;;;;5108353;28;20407;-39
2021/06/02 05:01:51;;;;;;;2.40;2.20;;;19.30;68.50;;;;;;5113866;28;20044;-44
2021/06/02 05:04:56;;;;;;;2.60;2.28;;;19.30;68.50;;;;;;5110388;28;20508;-43
2021/06/02 05:07:30;;;;;;;2.67;2.40;;;19.40;68.60;;;;;;5053764;28;20499;-47
2021/06/02 05:09:59;;;;;;;2.97;2.40;;;19.30;69.20;;;;;;5071100;28;20049;-45
2021/06/02 05:12:52;;;;;;;3.00;2.55;;;19.30;68.50;;;;;;5069059;28;20144;-43
2021/06/02 05:15:55;;;;;;;2.63;2.42;;;19.30;68.50;;;;;;5070723;28;20520;-45
2021/06/02 05:18:42;;;;;;;2.63;2.15;;;19.30;68.50;;;;;;5070381;28;20056;-46
2021/06/02 05:25:06;;;;;;;2.40;2.20;;;19.30;68.90;;;;;;5070450;28;20145;-41
2021/06/02 05:27:59;;;;;;;3.08;2.15;;;19.30;68.50;;;;;;5058356;28;20049;-45
2021/06/02 05:30:51;;;;;;;4.00;2.53;;;19.30;68.50;;;;;;5069266;28;20059;-46
2021/06/02 05:33:54;;;;;;;3.25;2.83;;;19.30;68.50;;;;;;5070358;28;20076;-49
2021/06/02 05:36:41;;;;;;;2.65;2.40;;;19.30;68.50;;;;;;5070279;28;20044;-44
2021/06/02 05:39:12;;;;;;;2.92;2.42;;;19.30;68.60;;;;;;5127561;27;20043;-44
2021/06/02 05:42:13;;;;;;;4.70;2.47;;;19.30;68.60;;;;;;5132996;27;20047;-41
2021/06/02 05:44:45;;;;;;;3.65;3.00;;;19.30;68.50;;;;;;5113077;28;20043;-46
2021/06/02 05:47:38;;;;;;;3.60;3.17;;;19.30;68.50;;;;;;5126146;27;20120;-45
2021/06/02 05:50:13;;;;;;;3.45;2.47;;;19.30;68.50;;;;;;5133670;27;20043;-43
2021/06/02 05:53:19;;;;;;;4.35;2.83;;;19.30;68.50;;;;;;5133299;27;20137;-45
2021/06/02 05:56:03;;;;;;;3.58;2.30;;;19.30;68.60;;;;;;5133212;27;20047;-43
2021/06/02 05:59:01;;;;;;;3.67;2.67;;;19.30;68.50;;;;;;5132710;27;20046;-45
2021/06/02 06:01:46;;;;;;;2.75;2.38;;;19.30;68.60;;;;;;5133133;27;20517;-43
2021/06/02 06:04:49;;;;;;;3.08;2.78;;;19.30;68.60;;;;;;5132944;27;20081;-43
2021/06/02 06:07:30;;;;;;;2.72;2.20;;;19.30;68.50;;;;;;5132669;27;20500;-42
2021/06/02 06:10:29;;;;;;;3.25;2.83;;;19.30;68.60;;;;;;5133528;27;20062;-52
2021/06/02 06:13:00;;;;;;;4.72;2.63;;;19.30;68.50;;;;;;5132873;27;20046;-42
2021/06/02 06:15:49;;;;;;;3.38;2.58;;;19.30;68.60;;;;;;5133457;27;20051;-46
2021/06/02 06:18:24;;;;;;;3.15;2.58;;;19.30;68.50;;;;;;5132781;27;20483;-39
2021/06/02 06:21:02;;;;;;;2.83;2.38;;;19.30;68.60;;;;;;5133389;28;20482;-46
2021/06/02 06:23:35;;;;;;;3.47;2.63;;;19.30;68.60;;;;;;5133259;28;20138;-45
2021/06/02 06:26:08;;;;;;;3.90;2.60;;;19.30;68.60;;;;;;5133344;28;20051;-43
2021/06/02 06:28:38;;;;;;;4.05;2.67;;;19.30;68.60;;;;;;5132379;28;20447;-44
2021/06/02 06:31:15;;;;;;;2.60;2.28;;;19.30;68.60;;;;;;5133354;28;20074;-44
2021/06/02 06:33:43;;;;;;;2.97;2.15;;;19.30;68.60;;;;;;5132248;28;20054;-46
2021/06/02 06:36:10;;;;;;;2.53;2.30;;;19.30;68.60;;;;;;5133314;28;20184;-47
2021/06/02 06:38:44;;;;;;;3.75;2.50;;;19.30;68.60;;;;;;5132501;28;20403;-41
2021/06/02 06:41:13;;;;;;;2.92;2.40;;;19.30;68.70;;;;;;5112453;28;20048;-43
2021/06/02 06:43:41;;;;;;;2.38;2.17;;;19.30;68.70;;;;;;5123409;28;20592;-43
2021/06/02 06:46:08;;;;;;;2.53;2.03;;;19.30;68.70;;;;;;5113416;28;20039;-43
2021/06/02 06:48:35;;;;;;;2.53;2.33;;;19.30;68.70;;;;;;5133076;28;20051;-46
2021/06/02 06:51:02;;;;;;;3.92;2.42;;;19.30;68.70;;;;;;5132386;28;20046;-47
2021/06/02 06:53:30;;;;;;;2.70;2.50;;;19.30;68.80;;;;;;5134188;27;20122;-43
2021/06/02 06:55:57;;;;;;;4.13;2.65;;;19.30;68.80;;;;;;5135354;27;20084;-43
2021/06/02 06:58:24;;;;;;;2.38;2.10;;;19.30;68.80;;;;;;5136790;27;20047;-44
2021/06/02 07:00:51;;;;;;;3.00;2.30;;;19.40;68.90;;;;;;5136082;27;20115;-46
2021/06/02 07:03:17;;;;;;;2.53;2.30;;;19.30;68.80;;;;;;5136278;27;20426;-48
2021/06/02 07:05:44;;;;;;;3.20;2.55;;;19.40;68.80;;;;;;5136780;27;20436;-44
2021/06/02 07:08:10;;;;;;;3.00;2.47;;;19.50;68.90;;;;;;5135974;27;20051;-44
2021/06/02 07:10:37;;;;;;;4.68;2.65;;;19.40;68.80;;;;;;5136743;27;20043;-45
2021/06/02 07:13:07;;;;;;;3.10;2.80;;;19.40;68.90;;;;;;5136384;27;20402;-44
2021/06/02 07:15:33;;;;;;;2.97;2.65;;;19.40;68.90;;;;;;5135850;27;20121;-44
2021/06/02 07:18:01;;;;;;;2.65;2.38;;;19.40;68.90;;;;;;5136108;27;20463;-43
2021/06/02 07:20:30;;;;;;;3.40;2.60;;;19.40;68.90;;;;;;5136624;27;20044;-47
2021/06/02 07:22:57;;;;;;;239.63;19.55;;;19.40;68.90;;;;;;5136167;27;20408;-46
2021/06/02 07:25:25;;;;;;;162.77;17.55;;;19.50;68.00;;;;;;5136010;27;20046;-50
2021/06/02 07:27:52;;;;;;;285.67;29.80;;;20.70;66.60;;;;;;5136185;27;20051;-50
2021/06/02 07:30:26;;;;;;;193.90;22.10;;;21.80;63.90;;;;;;5135482;27;20509;-48
2021/06/02 07:32:52;;;;;;;132.27;18.70;;;22.20;62.00;;;;;;5135910;27;20479;-47
2021/06/02 07:35:18;;;;;;;120.30;18.20;;;22.10;61.20;;;;;;5135244;27;20505;-46
2021/06/02 07:37:44;;;;;;;104.63;15.75;;;22.00;60.80;;;;;;5135328;27;20043;-45
2021/06/02 07:40:10;;;;;;;108.70;16.23;;;21.80;60.80;;;;;;5135383;27;20118;-47
2021/06/02 07:42:36;;;;;;;79.00;13.68;;;21.70;60.90;;;;;;5135653;27;20043;-48
2021/06/02 07:45:03;;;;;;;77.25;13.70;;;21.50;61.20;;;;;;5135503;27;20038;-49
2021/06/02 07:47:29;;;;;;;71.13;12.98;;;21.30;61.40;;;;;;5135616;27;20047;-49
2021/06/02 07:49:55;;;;;;;69.43;14.38;;;21.20;61.80;;;;;;5135654;27;20535;-48
2021/06/02 07:52:21;;;;;;;63.70;13.18;;;21.10;62.10;;;;;;5135540;27;20118;-46
2021/06/02 07:54:46;;;;;;;97.55;13.85;;;20.90;62.50;;;;;;5135637;27;20043;-45
2021/06/02 07:57:12;;;;;;;63.35;11.60;;;20.80;62.80;;;;;;5135666;27;20070;-44
2021/06/02 07:59:38;;;;;;;55.10;11.02;;;20.70;63.00;;;;;;5135283;27;20050;-45
2021/06/02 08:02:03;;;;;;;57.28;13.13;;;20.60;63.30;;;;;;5135193;27;20039;-45
2021/06/02 08:04:30;;;;;;;56.85;10.65;;;20.50;63.80;;;;;;5135143;27;20411;-46
2021/06/02 08:06:57;;;;;;;56.85;10.48;;;20.50;63.90;;;;;;5135316;27;20483;-46
2021/06/02 08:09:23;;;;;;;39.10;9.63;;;20.40;64.20;;;;;;5135159;27;20062;-49
2021/06/02 08:11:51;;;;;;;39.42;8.90;;;20.40;64.40;;;;;;5135077;27;20048;-47
2021/06/02 08:14:17;;;;;;;35.35;9.02;;;20.40;64.70;;;;;;5135122;27;20092;-46
2021/06/02 08:16:42;;;;;;;34.50;8.63;;;20.30;64.80;;;;;;5134893;27;20051;-45
2021/06/02 08:19:08;;;;;;;34.80;7.78;;;20.30;65.10;;;;;;5134708;27;20511;-47
2021/06/02 08:21:34;;;;;;;38.90;9.63;;;20.20;65.20;;;;;;5134801;27;20540;-43
2021/06/02 08:24:01;;;;;;;51.15;8.18;;;20.20;65.40;;;;;;5135279;27;20148;-46
2021/06/02 08:26:27;;;;;;;28.10;7.97;;;20.20;65.50;;;;;;5129646;27;20039;-50
2021/06/02 08:28:52;;;;;;;35.22;8.38;;;20.20;65.60;;;;;;5125653;27;20119;-47
2021/06/02 08:31:18;;;;;;;33.22;8.00;;;20.20;65.80;;;;;;5125562;27;20059;-51
2021/06/02 08:33:44;;;;;;;36.45;9.13;;;20.10;65.90;;;;;;5133064;27;20092;-46
2021/06/02 08:36:10;;;;;;;36.65;7.97;;;20.10;66.00;;;;;;5134659;27;20523;-47
2021/06/02 08:38:36;;;;;;;20.73;6.22;;;20.00;66.00;;;;;;5134830;27;20039;-46
2021/06/02 08:41:02;;;;;;;24.70;8.15;;;20.10;66.20;;;;;;5134363;27;20047;-47
2021/06/02 08:43:28;;;;;;;23.63;7.15;;;20.10;66.20;;;;;;5134794;27;20544;-46
2021/06/02 08:45:57;;;;;;;28.42;8.38;;;20.10;66.30;;;;;;5134849;27;20047;-47
2021/06/02 08:48:24;;;;;;;20.08;6.32;;;20.10;66.40;;;;;;5133126;27;20118;-45
2021/06/02 08:50:50;;;;;;;16.45;5.63;;;20.10;66.50;;;;;;5134582;27;20495;-49
2021/06/02 08:53:19;;;;;;;31.63;7.22;;;20.00;66.50;;;;;;5134150;27;20049;-53
2021/06/02 08:55:46;;;;;;;22.55;6.35;;;20.10;66.60;;;;;;5133868;27;20047;-49
2021/06/02 08:58:20;;;;;;;22.55;6.30;;;20.10;66.70;;;;;;5134266;27;20050;-46
2021/06/02 09:00:46;;;;;;;20.10;6.55;;;20.10;66.70;;;;;;5134197;27;20112;-44
2021/06/02 09:03:12;;;;;;;16.20;5.63;;;20.10;66.70;;;;;;5132511;27;20039;-45
2021/06/02 09:05:39;;;;;;;23.60;5.70;;;20.10;66.80;;;;;;5134191;27;20050;-44
2021/06/02 09:08:07;;;;;;;17.55;6.45;;;20.10;66.80;;;;;;5133844;27;20059;-49
2021/06/02 09:10:38;;;;;;;15.40;5.97;;;20.10;66.90;;;;;;5133480;27;20047;-43
2021/06/02 09:13:14;;;;;;;16.42;5.72;;;20.10;66.90;;;;;;5132827;27;20047;-44
2021/06/02 09:15:44;;;;;;;12.52;4.85;;;20.10;66.90;;;;;;5130897;27;20039;-59
2021/06/02 09:18:14;;;;;;;20.33;5.85;;;20.10;66.90;;;;;;5133063;27;20047;-58
2021/06/02 09:20:49;;;;;;;16.75;5.13;;;20.10;66.90;;;;;;5134044;27;20096;-49
2021/06/02 09:23:33;;;;;;;12.68;5.20;;;20.10;67.00;;;;;;5133562;27;20108;-47
2021/06/02 09:26:11;;;;;;;17.60;5.13;;;20.10;67.00;;;;;;5132525;27;20047;-47
2021/06/02 09:28:58;;;;;;;12.00;4.53;;;20.10;67.00;;;;;;5133690;27;20046;-46
2021/06/02 09:31:34;;;;;;;16.42;4.72;;;20.10;67.00;;;;;;5133864;27;20047;-48
2021/06/02 09:34:24;;;;;;;18.80;4.90;;;20.10;67.10;;;;;;5132223;27;20058;-47
2021/06/02 09:36:54;;;;;;;15.65;4.80;;;20.10;67.10;;;;;;5132947;27;20058;-46
2021/06/02 09:39:23;;;;;;;12.27;4.68;;;20.10;67.10;;;;;;5133576;27;20043;-45
2021/06/02 09:41:52;;;;;;;11.93;4.25;;;20.10;67.10;;;;;;5132293;27;20058;-45
2021/06/02 09:44:25;;;;;;;11.00;3.97;;;20.20;67.10;;;;;;5133493;27;20487;-46
2021/06/02 09:47:15;;;;;;;11.95;4.38;;;20.20;67.10;;;;;;5132802;27;20043;-53
2021/06/02 09:49:51;;;;;;;11.93;3.70;;;20.20;67.20;;;;;;5133332;27;20115;-49
2021/06/02 09:52:18;;;;;;;7.00;3.55;;;20.20;67.10;;;;;;5133086;27;20111;-48
2021/06/02 09:54:46;;;;;;;7.40;4.07;;;20.20;67.20;;;;;;5132657;27;20130;-47
2021/06/02 09:57:12;;;;;;;11.10;3.88;;;20.20;67.20;;;;;;5132826;27;20039;-47
2021/06/02 09:59:59;;;;;;;8.20;3.78;;;20.20;67.20;;;;;;5133103;27;20050;-49
2021/06/02 10:02:25;;;;;;;7.82;3.65;;;20.20;67.20;;;;;;5132019;27;20114;-50
2021/06/02 10:05:00;;;;;;;9.85;3.97;;;20.20;67.10;;;;;;5133108;27;20046;-46
2021/06/02 10:07:25;;;;;;;10.33;4.00;;;20.20;67.10;;;;;;5132503;27;20062;-48
2021/06/02 10:09:52;;;;;;;8.52;3.72;;;20.30;67.20;;;;;;5127767;27;20050;-47
2021/06/02 10:12:18;;;;;;;7.32;4.50;;;20.20;67.10;;;;;;5127564;27;20047;-52
2021/06/02 10:14:57;;;;;;;9.45;3.90;;;20.30;67.20;;;;;;5132107;27;20050;-45
2021/06/02 10:17:40;;;;;;;9.50;3.97;;;20.30;67.20;;;;;;5131759;27;20416;-43
2021/06/02 10:20:10;;;;;;;7.68;2.92;;;20.30;67.10;;;;;;5130886;27;20043;-48
2021/06/02 10:22:36;;;;;;;9.05;3.40;;;20.30;67.10;;;;;;5113702;28;20135;-49
2021/06/02 10:25:05;;;;;;;5.43;3.03;;;20.30;67.10;;;;;;5129425;27;20108;-46
2021/06/02 10:27:31;;;;;;;7.25;3.03;;;20.30;67.10;;;;;;5131910;27;20043;-48
2021/06/02 10:29:57;;;;;;;6.25;2.90;;;20.30;67.10;;;;;;5136200;27;20047;-46
2021/06/02 10:32:25;;;;;;;7.28;3.05;;;20.30;67.10;;;;;;5135794;27;20146;-50
2021/06/02 10:34:52;;;;;;;10.38;3.30;;;20.40;67.20;;;;;;5136515;27;20432;-49
2021/06/02 10:37:19;;;;;;;4.63;2.80;;;20.40;67.20;;;;;;5136584;27;20441;-46
2021/06/02 10:39:52;;;;;;;11.18;3.70;;;20.40;67.10;;;;;;5135533;27;20086;-46
2021/06/02 10:42:41;;;;;;;7.20;3.25;;;20.40;67.00;;;;;;5122696;27;20046;-48
2021/06/02 10:45:21;;;;;;;5.55;3.17;;;20.40;67.00;;;;;;5053425;28;20063;-46
2021/06/02 10:47:57;;;;;;;4.13;2.90;;;20.40;67.00;;;;;;5051955;28;20140;-48
2021/06/02 10:50:38;;;;;;;5.45;3.08;;;20.40;67.00;;;;;;5052986;28;20072;-49
2021/06/02 10:53:20;;;;;;;7.10;3.00;;;20.50;67.00;;;;;;5052525;28;20056;-48
2021/06/02 10:55:57;;;;;;;6.55;2.47;;;20.50;67.00;;;;;;5052107;28;20581;-47
2021/06/02 10:58:34;;;;;;;4.65;3.00;;;20.50;66.90;;;;;;5053196;28;20052;-47
2021/06/02 11:01:09;;;;;;;6.10;2.85;;;20.50;66.90;;;;;;5039050;28;20068;-43
2021/06/02 11:03:37;;;;;;;6.18;2.70;;;20.50;66.90;;;;;;5053227;28;20489;-45
2021/06/02 11:06:14;;;;;;;6.50;2.70;;;20.50;66.90;;;;;;5061587;28;20051;-45
2021/06/02 11:08:52;;;;;;;4.18;2.47;;;20.60;66.90;;;;;;5050026;28;20123;-46
2021/06/02 11:11:35;;;;;;;4.75;2.70;;;20.60;66.90;;;;;;5052722;28;20044;-47
2021/06/02 11:14:16;;;;;;;4.15;2.60;;;20.60;66.80;;;;;;5053252;28;20053;-50
2021/06/02 11:16:55;;;;;;;4.65;2.80;;;20.60;66.80;;;;;;5052728;28;20064;-49
2021/06/02 11:19:26;;;;;;;3.05;2.28;;;20.60;66.80;;;;;;5052977;28;20136;-47
2021/06/02 11:21:52;;;;;;;6.93;2.58;;;20.60;66.80;;;;;;5085253;27;20057;-46
2021/06/02 11:24:33;;;;;;;3.83;2.20;;;20.70;66.80;;;;;;5136137;27;20118;-45
2021/06/02 11:27:11;;;;;;;3.97;2.53;;;20.70;66.80;;;;;;5135858;27;20051;-44
2021/06/02 11:29:52;;;;;;;4.95;2.75;;;20.70;66.70;;;;;;5128299;27;20068;-45
2021/06/02 11:32:28;;;;;;;3.50;2.53;;;20.70;66.70;;;;;;5107189;28;20075;-45
2021/06/02 11:34:59;;;;;;;5.50;2.55;;;20.70;66.70;;;;;;5134169;27;20114;-45
2021/06/02 11:37:27;;;;;;;4.15;2.65;;;20.70;66.70;;;;;;5136338;27;20050;-48
2021/06/02 11:39:55;;;;;;;3.17;2.15;;;20.70;66.70;;;;;;5134924;27;20487;-45
2021/06/02 11:42:42;;;;;;;3.80;2.47;;;20.70;66.60;;;;;;5135168;27;20075;-45
2021/06/02 11:45:15;;;;;;;4.07;2.25;;;20.80;66.70;;;;;;5127723;27;20387;-45
2021/06/02 11:47:48;;;;;;;3.45;2.40;;;20.80;66.70;;;;;;5135650;27;20043;-45
2021/06/02 11:50:16;;;;;;;4.10;2.30;;;20.80;66.60;;;;;;5135517;27;20099;-54
2021/06/02 11:52:45;;;;;;;2.47;2.10;;;20.80;66.60;;;;;;5135234;27;20047;-47
2021/06/02 11:55:15;;;;;;;3.50;2.20;;;20.80;66.60;;;;;;5135253;27;20050;-47
2021/06/02 11:57:46;;;;;;;3.67;2.30;;;20.80;66.60;;;;;;5135779;27;20043;-52
2021/06/02 12:00:16;;;;;;;4.85;2.53;;;20.80;66.60;;;;;;5135853;27;20206;-48
2021/06/02 12:02:44;;;;;;;4.15;2.35;;;20.80;66.60;;;;;;5135403;27;20047;-49
2021/06/02 12:05:14;;;;;;;2.42;2.03;;;20.80;66.60;;;;;;5134779;27;20054;-51
2021/06/02 12:07:44;;;;;;;3.22;2.15;;;20.80;66.60;;;;;;5134935;27;20475;-48
2021/06/02 12:10:11;;;;;;;4.65;2.25;;;20.80;66.50;;;;;;5134602;27;20046;-47
2021/06/02 12:12:41;;;;;;;4.95;2.45;;;20.90;66.60;;;;;;5135229;27;20043;-51
2021/06/02 12:15:08;;;;;;;3.10;2.42;;;20.90;66.60;;;;;;5135006;27;20055;-48
2021/06/02 12:17:35;;;;;;;3.78;2.00;;;20.90;66.60;;;;;;5135043;27;20054;-49
2021/06/02 12:20:05;;;;;;;3.83;2.22;;;20.90;66.50;;;;;;5135340;27;20051;-52
2021/06/02 12:22:31;;;;;;;3.38;2.20;;;20.90;66.50;;;;;;5134921;27;20043;-48
2021/06/02 12:25:17;;;;;;;2.90;2.15;;;20.90;67.20;;;;;;5134744;27;20067;-50
2021/06/02 12:27:44;;;;;;;3.17;2.47;;;20.90;66.50;;;;;;5135422;27;20114;-50
2021/06/02 12:30:20;;;;;;;3.22;2.05;;;20.90;66.50;;;;;;5135379;27;20533;-50
2021/06/02 12:32:51;;;;;;;3.45;2.15;;;20.90;66.50;;;;;;5135170;27;20043;-49
2021/06/02 12:35:42;;;;;;;2.90;2.22;;;20.90;66.50;;;;;;5135021;27;20047;-47
2021/06/02 12:38:16;;;;;;;2.72;2.00;;;20.90;66.50;;;;;;5114755;28;20402;-50
2021/06/02 12:40:47;;;;;;;4.72;2.50;;;20.90;66.50;;;;;;5133301;27;20047;-48
2021/06/02 12:43:16;;;;;;;4.05;2.30;;;20.90;66.50;;;;;;5134782;27;20503;-49
2021/06/02 12:45:43;;;;;;;2.65;2.00;;;21.00;66.50;;;;;;5134554;27;20171;-55
2021/06/02 12:48:09;;;;;;;3.25;2.00;;;21.00;66.50;;;;;;5134288;27;20126;-49
2021/06/02 12:50:48;;;;;;;4.90;2.17;;;21.00;66.50;;;;;;5133735;27;20538;-48
2021/06/02 12:53:16;;;;;;;3.55;2.10;;;20.90;66.40;;;;;;5127402;27;20087;-57
2021/06/02 12:55:45;;;;;;;3.30;1.95;;;21.00;66.50;;;;;;5134416;27;20069;-46
2021/06/02 12:58:13;;;;;;;2.40;1.80;;;21.00;66.50;;;;;;5134034;27;20039;-54
2021/06/02 13:00:44;;;;;;;2.20;1.88;;;21.00;66.50;;;;;;5134545;27;20054;-49
2021/06/02 13:03:21;;;;;;;3.30;1.95;;;21.00;66.50;;;;;;5134299;27;20043;-49
2021/06/02 13:05:48;;;;;;;2.40;1.90;;;21.00;66.50;;;;;;5134361;27;20075;-46
2021/06/02 13:08:15;;;;;;;2.35;1.70;;;21.00;66.60;;;;;;5133863;27;20503;-49
2021/06/02 13:10:43;;;;;;;2.15;1.90;;;21.00;66.50;;;;;;5134219;27;20542;-46
2021/06/02 13:13:11;;;;;;;4.63;2.05;;;21.00;66.50;;;;;;5133515;27;20509;-46
2021/06/02 13:15:55;;;;;;;2.17;1.85;;;21.00;66.50;;;;;;5134518;27;20155;-49
2021/06/02 13:18:24;;;;;;;3.33;2.10;;;21.00;66.60;;;;;;5134233;27;20043;-48
2021/06/02 13:20:50;;;;;;;2.00;1.80;;;21.00;66.60;;;;;;5134226;27;20046;-45
2021/06/02 13:23:21;;;;;;;2.38;2.00;;;21.00;66.60;;;;;;5133901;27;20240;-49
2021/06/02 13:26:07;;;;;;;3.15;1.80;;;21.00;66.60;;;;;;5134141;27;20039;-47